Time;durP1;ratioP1;P1;durP2;ratioP2;P2;SDS_P1;SDS_P2;PMS_P1;PMS_P2;Temp;Humidity;BMP_temperature;BMP_pressure;BME280_temperature;BME280_humidity;BME280_pressure;Samples;Min_cycle;Max_cycle;Signal;HPM_P1;HPM_P2
2021/01/11 00:01:09;;;;;;;24.83;16.50;;;-2.80;99.90;;;;;;5052095;28;20715;-60
2021/01/11 00:03:36;;;;;;;32.07;17.80;;;-2.70;99.90;;;;;;5052094;28;20201;-61
2021/01/11 00:06:02;;;;;;;23.37;15.53;;;-2.60;99.90;;;;;;5052372;28;20233;-61
2021/01/11 00:08:28;;;;;;;26.87;16.50;;;-2.60;99.90;;;;;;5051918;28;20692;-61
2021/01/11 00:10:54;;;;;;;23.80;15.37;;;-2.60;99.90;;;;;;5052168;28;20209;-62
2021/01/11 00:13:21;;;;;;;23.33;15.10;;;-2.60;99.90;;;;;;5052605;28;20233;-61
2021/01/11 00:15:48;;;;;;;23.93;15.67;;;-2.60;99.90;;;;;;5052175;28;20685;-60
2021/01/11 00:18:14;;;;;;;22.20;14.53;;;-2.70;99.90;;;;;;5052199;28;20221;-59
2021/01/11 00:20:40;;;;;;;21.50;14.93;;;-2.90;99.90;;;;;;5051987;28;20245;-60
2021/01/11 00:23:06;;;;;;;24.57;15.33;;;-3.00;99.90;;;;;;5052113;28;20209;-60
2021/01/11 00:25:32;;;;;;;23.43;15.33;;;-3.00;99.90;;;;;;5051752;28;20205;-60
2021/01/11 00:27:58;;;;;;;20.97;14.50;;;-3.00;99.90;;;;;;5051458;28;20559;-61
2021/01/11 00:30:25;;;;;;;25.67;15.93;;;-3.10;99.90;;;;;;5051597;28;20284;-60
2021/01/11 00:32:52;;;;;;;25.03;15.10;;;-3.00;99.90;;;;;;5051693;28;20225;-61
2021/01/11 00:35:18;;;;;;;24.33;15.20;;;-2.70;99.90;;;;;;5051436;28;20614;-61
2021/01/11 00:37:44;;;;;;;22.83;15.10;;;-2.70;99.90;;;;;;5051333;28;20216;-60
2021/01/11 00:40:10;;;;;;;23.23;15.40;;;-2.60;99.90;;;;;;5051517;28;20234;-60
2021/01/11 00:42:37;;;;;;;24.20;15.03;;;-2.40;99.90;;;;;;5051475;28;20201;-61
2021/01/11 00:45:04;;;;;;;22.60;15.17;;;-2.40;99.90;;;;;;5051601;28;20571;-62
2021/01/11 00:47:31;;;;;;;24.10;14.70;;;-2.30;99.90;;;;;;5051495;28;20362;-61
2021/01/11 00:49:57;;;;;;;21.67;14.60;;;-2.20;99.90;;;;;;5051582;28;20582;-61
2021/01/11 00:52:24;;;;;;;23.33;14.47;;;-2.10;99.90;;;;;;5051270;28;20592;-61
2021/01/11 00:54:50;;;;;;;23.33;14.63;;;-2.00;99.90;;;;;;5051150;28;20595;-61
2021/01/11 00:57:16;;;;;;;27.30;16.90;;;-2.00;99.90;;;;;;5051131;28;20577;-62
2021/01/11 00:59:43;;;;;;;29.83;18.37;;;-2.00;99.90;;;;;;5051292;28;20229;-61
2021/01/11 01:02:09;;;;;;;24.27;15.80;;;-2.00;99.90;;;;;;5051418;28;20197;-61
2021/01/11 01:04:36;;;;;;;26.33;16.53;;;-2.10;99.90;;;;;;5050933;28;20205;-61
2021/01/11 01:07:03;;;;;;;22.50;15.00;;;-2.20;99.90;;;;;;5051251;28;20666;-61
2021/01/11 01:09:30;;;;;;;20.33;14.27;;;-2.30;99.90;;;;;;5050467;28;20225;-62
2021/01/11 01:11:56;;;;;;;24.87;16.57;;;-2.40;99.90;;;;;;5050793;28;20221;-61
2021/01/11 01:14:22;;;;;;;23.17;15.27;;;-2.40;99.90;;;;;;5050676;28;20235;-61
2021/01/11 01:16:48;;;;;;;23.53;15.20;;;-2.40;99.90;;;;;;5051139;28;20228;-61
2021/01/11 01:19:15;;;;;;;26.47;16.27;;;-2.50;99.90;;;;;;5050652;28;20229;-61
2021/01/11 01:21:42;;;;;;;37.63;23.03;;;-2.50;99.90;;;;;;5050924;28;20205;-61
2021/01/11 01:24:08;;;;;;;37.13;21.47;;;-2.60;99.90;;;;;;5050448;28;20603;-61
2021/01/11 01:26:34;;;;;;;25.47;16.23;;;-2.60;99.90;;;;;;5050847;28;20252;-61
2021/01/11 01:29:00;;;;;;;22.87;15.17;;;-2.60;99.90;;;;;;5050428;28;20748;-61
2021/01/11 01:31:26;;;;;;;22.53;14.87;;;-2.60;99.90;;;;;;5050850;28;20473;-61
2021/01/11 01:33:53;;;;;;;20.50;13.70;;;-2.60;99.90;;;;;;5050421;28;20236;-60
2021/01/11 01:36:19;;;;;;;23.13;14.70;;;-2.70;99.90;;;;;;5050675;28;20208;-60
2021/01/11 01:38:46;;;;;;;19.60;14.20;;;-2.70;99.90;;;;;;5050340;28;20233;-61
2021/01/11 01:41:12;;;;;;;20.60;14.13;;;-2.80;99.90;;;;;;5050719;28;20205;-62
2021/01/11 01:43:39;;;;;;;21.57;14.23;;;-2.80;99.90;;;;;;5050331;28;20575;-61
2021/01/11 01:46:06;;;;;;;21.00;14.43;;;-2.90;99.90;;;;;;5050758;28;20460;-62
2021/01/11 01:48:32;;;;;;;21.70;13.97;;;-2.90;99.90;;;;;;5050437;28;20206;-61
2021/01/11 01:50:59;;;;;;;20.67;14.63;;;-3.00;99.90;;;;;;5050627;28;20202;-61
2021/01/11 01:53:25;;;;;;;19.80;13.20;;;-2.90;99.90;;;;;;5050177;28;20592;-61
2021/01/11 01:55:53;;;;;;;20.50;13.87;;;-3.10;99.90;;;;;;5050998;28;20209;-61
2021/01/11 01:58:21;;;;;;;20.47;13.60;;;-3.10;99.90;;;;;;5050489;28;20212;-61
2021/01/11 02:00:48;;;;;;;21.90;14.67;;;-3.20;99.90;;;;;;5050442;28;20320;-62
2021/01/11 02:03:14;;;;;;;24.87;15.70;;;-3.30;99.90;;;;;;5050540;28;20292;-61
2021/01/11 02:05:41;;;;;;;24.90;15.70;;;-3.30;99.90;;;;;;5050189;28;20205;-60
2021/01/11 02:08:12;;;;;;;21.87;14.63;;;-3.30;99.90;;;;;;5049810;28;20664;-61
2021/01/11 02:10:58;;;;;;;21.40;14.03;;;-3.40;99.90;;;;;;5050449;28;20237;-61
2021/01/11 02:13:39;;;;;;;24.07;15.50;;;-3.40;99.90;;;;;;5049945;28;20226;-60
2021/01/11 02:16:10;;;;;;;22.27;15.20;;;-3.50;99.90;;;;;;5050198;28;20210;-61
2021/01/11 02:18:46;;;;;;;22.90;14.50;;;-3.40;99.90;;;;;;5049800;28;20206;-62
2021/01/11 02:21:36;;;;;;;20.60;13.53;;;-3.50;99.90;;;;;;5050919;28;20231;-61
2021/01/11 02:24:26;;;;;;;22.70;15.07;;;-3.60;99.90;;;;;;5054214;28;20296;-61
2021/01/11 02:27:08;;;;;;;23.03;13.33;;;-3.60;99.90;;;;;;5043679;28;20603;-60
2021/01/11 02:29:56;;;;;;;25.87;15.73;;;-3.50;99.90;;;;;;5053925;28;20221;-61
2021/01/11 02:32:24;;;;;;;23.17;14.30;;;-3.50;99.90;;;;;;5053904;28;20226;-61
2021/01/11 02:34:52;;;;;;;22.23;14.13;;;-3.60;99.90;;;;;;5053502;28;20213;-60
2021/01/11 02:37:19;;;;;;;21.37;13.73;;;-3.60;99.90;;;;;;5053775;28;20206;-61
2021/01/11 02:39:45;;;;;;;21.23;13.37;;;-3.50;99.90;;;;;;5053878;28;20236;-61
2021/01/11 02:42:11;;;;;;;21.80;13.80;;;-3.60;99.90;;;;;;5053927;28;20206;-61
2021/01/11 02:44:37;;;;;;;21.87;14.07;;;-3.70;99.90;;;;;;5053546;28;20258;-61
2021/01/11 02:47:04;;;;;;;21.57;14.27;;;-3.80;99.90;;;;;;5053904;28;20229;-62
2021/01/11 02:49:37;;;;;;;20.80;12.50;;;-3.80;99.90;;;;;;5053367;28;20241;-61
2021/01/11 02:52:11;;;;;;;21.03;13.53;;;-3.80;99.90;;;;;;5053894;28;20221;-60
2021/01/11 02:54:39;;;;;;;22.70;13.80;;;-3.70;99.90;;;;;;5053369;28;20712;-61
2021/01/11 02:57:15;;;;;;;21.43;14.00;;;-3.70;99.90;;;;;;5053779;28;20212;-61
2021/01/11 02:59:46;;;;;;;20.57;14.10;;;-3.80;99.90;;;;;;5053654;28;20229;-61
2021/01/11 03:02:15;;;;;;;21.17;13.27;;;-3.90;99.90;;;;;;5053527;28;20290;-62
2021/01/11 03:04:43;;;;;;;20.53;13.33;;;-3.90;99.90;;;;;;5053275;28;20228;-61
2021/01/11 03:07:10;;;;;;;21.07;12.43;;;-3.90;99.90;;;;;;5053679;28;20205;-60
2021/01/11 03:09:38;;;;;;;17.47;11.93;;;-3.90;99.90;;;;;;5053323;28;20228;-61
2021/01/11 03:12:05;;;;;;;19.73;13.20;;;-3.90;99.90;;;;;;5053397;28;20218;-61
2021/01/11 03:14:31;;;;;;;19.80;12.97;;;-3.90;99.90;;;;;;5053510;28;20209;-60
2021/01/11 03:16:57;;;;;;;19.93;13.67;;;-4.00;99.90;;;;;;5053328;28;20212;-61
2021/01/11 03:19:25;;;;;;;20.90;13.17;;;-4.20;99.90;;;;;;5053566;28;20589;-61
2021/01/11 03:21:51;;;;;;;22.40;14.20;;;-4.30;99.90;;;;;;5053233;28;20521;-62
2021/01/11 03:24:18;;;;;;;18.70;12.60;;;-4.40;99.90;;;;;;5052890;28;20221;-60
2021/01/11 03:26:46;;;;;;;22.63;13.93;;;-4.30;99.90;;;;;;5053057;28;20216;-61
2021/01/11 03:29:12;;;;;;;20.17;13.07;;;-4.20;99.90;;;;;;5052537;28;20647;-61
2021/01/11 03:31:39;;;;;;;20.40;12.87;;;-4.20;99.90;;;;;;5052798;28;20205;-61
2021/01/11 03:34:06;;;;;;;23.67;13.80;;;-4.20;99.90;;;;;;5052498;28;20205;-61
2021/01/11 03:36:33;;;;;;;23.47;14.10;;;-4.10;99.90;;;;;;5052876;28;20332;-60
2021/01/11 03:39:00;;;;;;;23.63;14.43;;;-4.10;99.90;;;;;;5052378;28;20233;-61
2021/01/11 03:41:26;;;;;;;22.60;14.17;;;-4.10;99.90;;;;;;5052733;28;20210;-60
2021/01/11 03:43:52;;;;;;;23.40;13.93;;;-4.20;99.90;;;;;;5052484;28;20464;-61
2021/01/11 03:46:18;;;;;;;21.13;14.03;;;-4.20;99.90;;;;;;5052818;28;20240;-61
2021/01/11 03:48:45;;;;;;;23.60;13.57;;;-4.20;99.90;;;;;;5052173;28;20590;-60
2021/01/11 03:51:13;;;;;;;22.20;13.63;;;-4.30;99.90;;;;;;5052688;28;20214;-60
2021/01/11 03:53:40;;;;;;;32.77;20.17;;;-4.30;99.90;;;;;;5052660;28;20284;-61
2021/01/11 03:56:07;;;;;;;19.53;13.13;;;-4.30;99.90;;;;;;5052521;28;20210;-62
2021/01/11 03:58:33;;;;;;;21.47;13.13;;;-4.30;99.90;;;;;;5052494;28;20585;-61
2021/01/11 04:00:59;;;;;;;21.43;12.93;;;-4.30;99.90;;;;;;5052711;28;20216;-61
2021/01/11 04:03:27;;;;;;;20.17;12.53;;;-4.30;99.90;;;;;;5052249;28;20205;-59
2021/01/11 04:05:53;;;;;;;19.93;13.00;;;-4.20;99.90;;;;;;5052416;28;20205;-59
2021/01/11 04:08:20;;;;;;;22.70;13.53;;;-4.20;99.90;;;;;;5052020;28;20206;-59
2021/01/11 04:10:47;;;;;;;21.90;13.10;;;-4.20;99.90;;;;;;5051908;28;20736;-59
2021/01/11 04:13:13;;;;;;;20.57;12.70;;;-4.20;99.90;;;;;;5051874;28;20221;-60
2021/01/11 04:15:39;;;;;;;21.53;13.50;;;-4.30;99.90;;;;;;5051994;28;20209;-60
2021/01/11 04:18:06;;;;;;;20.70;12.73;;;-4.40;99.90;;;;;;5051762;28;20212;-60
2021/01/11 04:20:32;;;;;;;19.37;12.53;;;-4.40;99.90;;;;;;5051894;28;20233;-60
2021/01/11 04:22:59;;;;;;;20.30;12.53;;;-4.40;99.90;;;;;;5051832;28;20197;-59
2021/01/11 04:25:25;;;;;;;19.80;13.13;;;-4.40;99.90;;;;;;5051547;28;20255;-60
2021/01/11 04:27:52;;;;;;;20.50;13.33;;;-4.40;99.90;;;;;;5051742;28;20213;-60
2021/01/11 04:30:20;;;;;;;20.63;13.37;;;-4.40;99.90;;;;;;5052128;28;20279;-60
2021/01/11 04:32:46;;;;;;;21.40;13.70;;;-4.30;99.90;;;;;;5052261;28;20232;-60
2021/01/11 04:35:13;;;;;;;21.33;13.93;;;-4.40;99.90;;;;;;5051752;28;20216;-60
2021/01/11 04:37:41;;;;;;;22.10;14.77;;;-4.40;99.90;;;;;;5051781;28;20209;-60
2021/01/11 04:40:09;;;;;;;21.17;13.93;;;-4.50;99.90;;;;;;5051523;28;20225;-60
2021/01/11 04:42:44;;;;;;;22.27;14.57;;;-4.40;99.90;;;;;;5051748;28;20197;-59
2021/01/11 04:45:12;;;;;;;23.90;15.03;;;-4.50;99.90;;;;;;5050877;28;20374;-60
2021/01/11 04:47:39;;;;;;;28.37;17.07;;;-4.50;99.90;;;;;;5051770;28;20580;-58
2021/01/11 04:50:06;;;;;;;23.83;14.37;;;-4.50;99.90;;;;;;5051198;28;20225;-60
2021/01/11 04:52:33;;;;;;;21.27;14.00;;;-4.40;99.90;;;;;;5051239;28;20221;-60
2021/01/11 04:55:02;;;;;;;23.37;14.43;;;-4.50;99.90;;;;;;5051189;28;20209;-60
2021/01/11 04:57:33;;;;;;;26.10;15.40;;;-4.50;99.90;;;;;;5051186;28;20590;-60
2021/01/11 05:00:03;;;;;;;24.60;14.77;;;-4.40;99.90;;;;;;5051098;28;20719;-59
2021/01/11 05:02:31;;;;;;;25.40;15.67;;;-4.40;99.90;;;;;;5051316;28;20206;-62
2021/01/11 05:04:58;;;;;;;22.23;14.97;;;-4.30;99.90;;;;;;5050897;28;20235;-60
2021/01/11 05:07:30;;;;;;;27.50;14.60;;;-4.30;99.90;;;;;;5051417;28;20244;-60
2021/01/11 05:09:56;;;;;;;18.10;12.43;;;-4.30;99.90;;;;;;5050864;28;20229;-63
2021/01/11 05:12:23;;;;;;;23.00;13.90;;;-4.30;99.90;;;;;;5051002;28;20229;-59
2021/01/11 05:15:15;;;;;;;22.67;15.37;;;-4.30;99.90;;;;;;5050572;28;20704;-59
2021/01/11 05:17:43;;;;;;;23.00;15.20;;;-4.30;99.90;;;;;;5050679;28;20216;-60
2021/01/11 05:20:11;;;;;;;23.43;15.17;;;-4.20;99.90;;;;;;5050765;28;20267;-60
2021/01/11 05:22:37;;;;;;;20.83;13.37;;;-4.20;99.90;;;;;;5051021;28;20212;-61
2021/01/11 05:25:12;;;;;;;19.90;12.53;;;-4.20;99.90;;;;;;5050343;28;20218;-59
2021/01/11 05:27:38;;;;;;;19.83;13.20;;;-4.20;99.90;;;;;;5051206;28;20212;-58
2021/01/11 05:30:10;;;;;;;19.53;12.67;;;-4.30;99.90;;;;;;5050856;28;20225;-62
2021/01/11 05:32:36;;;;;;;19.30;12.33;;;-4.30;99.90;;;;;;5051390;28;20225;-62
2021/01/11 05:35:04;;;;;;;42.27;21.90;;;-4.30;99.90;;;;;;5051236;28;20212;-60
2021/01/11 05:37:38;;;;;;;23.13;13.37;;;-4.40;99.90;;;;;;5050998;28;20213;-60
2021/01/11 05:40:07;;;;;;;24.20;13.60;;;-4.40;99.90;;;;;;5050962;28;20226;-60
2021/01/11 05:42:33;;;;;;;22.57;13.03;;;-4.40;99.90;;;;;;5051017;28;20201;-61
2021/01/11 05:45:13;;;;;;;20.73;12.93;;;-4.50;99.90;;;;;;5050771;28;20236;-61
2021/01/11 05:47:59;;;;;;;21.13;12.33;;;-4.50;99.90;;;;;;5051334;28;20231;-60
2021/01/11 05:50:30;;;;;;;22.30;12.83;;;-4.60;99.90;;;;;;5050782;28;20232;-61
2021/01/11 05:52:56;;;;;;;20.83;13.00;;;-4.60;99.90;;;;;;5050434;28;20567;-60
2021/01/11 05:55:25;;;;;;;20.67;13.23;;;-4.70;99.90;;;;;;5050169;28;20704;-61
2021/01/11 05:57:59;;;;;;;22.00;13.20;;;-4.70;99.90;;;;;;5053847;28;20214;-61
2021/01/11 06:00:28;;;;;;;23.77;13.27;;;-4.70;99.90;;;;;;5055253;28;20742;-60
2021/01/11 06:02:55;;;;;;;22.00;13.23;;;-4.70;99.90;;;;;;5054866;28;20208;-60
2021/01/11 06:05:22;;;;;;;24.13;13.70;;;-4.70;99.90;;;;;;5054249;28;20208;-61
2021/01/11 06:07:50;;;;;;;31.53;17.83;;;-4.60;99.90;;;;;;5054191;28;20255;-60
2021/01/11 06:10:17;;;;;;;23.13;13.77;;;-4.60;99.90;;;;;;5054667;28;20283;-61
2021/01/11 06:12:45;;;;;;;23.83;13.83;;;-4.60;99.90;;;;;;5054426;28;20271;-60
2021/01/11 06:15:12;;;;;;;22.70;13.03;;;-4.60;99.90;;;;;;5054259;28;20689;-61
2021/01/11 06:17:40;;;;;;;21.57;13.50;;;-4.60;99.90;;;;;;5054636;28;20213;-58
2021/01/11 06:20:08;;;;;;;22.13;13.27;;;-4.60;99.90;;;;;;5053826;28;20233;-62
2021/01/11 06:23:13;;;;;;;23.57;14.50;;;-4.70;99.90;;;;;;5054159;28;20289;-61
2021/01/11 06:25:44;;;;;;;25.57;14.17;;;-4.80;99.90;;;;;;5054093;28;20259;-61
2021/01/11 06:28:11;;;;;;;24.73;14.33;;;-4.80;99.90;;;;;;5053873;28;20342;-61
2021/01/11 06:30:40;;;;;;;25.27;14.50;;;-4.80;99.90;;;;;;5054072;28;20229;-61
2021/01/11 06:33:14;;;;;;;22.53;14.40;;;-4.80;99.90;;;;;;5054254;28;20225;-60
2021/01/11 06:35:43;;;;;;;23.20;14.30;;;-4.80;99.90;;;;;;5054240;28;20708;-61
2021/01/11 06:38:24;;;;;;;22.53;14.20;;;-4.80;99.90;;;;;;5053672;28;20201;-61
2021/01/11 06:40:53;;;;;;;23.67;14.27;;;-4.80;99.90;;;;;;5054177;28;20221;-61
2021/01/11 06:43:21;;;;;;;25.13;15.73;;;-4.90;99.90;;;;;;5054013;28;20212;-62
2021/01/11 06:45:48;;;;;;;23.23;13.70;;;-4.90;99.90;;;;;;5053607;28;20202;-59
2021/01/11 06:48:16;;;;;;;22.03;13.70;;;-5.00;99.90;;;;;;5053705;28;20206;-61
2021/01/11 06:50:44;;;;;;;23.70;14.57;;;-5.10;99.90;;;;;;5053953;28;20236;-61
2021/01/11 06:53:11;;;;;;;23.67;13.70;;;-5.20;99.90;;;;;;5053647;28;20217;-61
2021/01/11 06:55:37;;;;;;;22.23;13.50;;;-5.30;99.90;;;;;;5053320;28;20232;-60
2021/01/11 06:58:04;;;;;;;22.90;13.90;;;-5.50;99.90;;;;;;5053829;28;20282;-60
2021/01/11 07:00:36;;;;;;;24.57;13.93;;;-5.40;99.90;;;;;;5053681;28;20229;-61
2021/01/11 07:03:04;;;;;;;22.60;14.07;;;-5.40;99.90;;;;;;5053696;28;20224;-61
2021/01/11 07:05:39;;;;;;;23.23;13.63;;;-5.30;99.90;;;;;;5053195;28;20697;-60
2021/01/11 07:08:07;;;;;;;23.47;13.37;;;-5.20;99.90;;;;;;5052786;28;20235;-61
2021/01/11 07:10:34;;;;;;;24.90;13.97;;;-5.20;99.90;;;;;;5053599;28;20248;-61
2021/01/11 07:13:27;;;;;;;21.60;13.27;;;-5.20;99.90;;;;;;5053752;28;20233;-60
2021/01/11 07:16:13;;;;;;;23.13;13.87;;;-5.10;99.90;;;;;;5053763;28;20293;-60
2021/01/11 07:18:50;;;;;;;24.03;13.73;;;-5.20;99.90;;;;;;5052961;28;20213;-60
2021/01/11 07:21:18;;;;;;;22.30;14.33;;;-5.20;99.90;;;;;;5053575;28;20254;-61
2021/01/11 07:23:44;;;;;;;25.43;14.60;;;-5.20;99.90;;;;;;5053324;28;20209;-61
2021/01/11 07:26:12;;;;;;;21.00;14.47;;;-5.20;99.90;;;;;;5053535;28;20213;-59
2021/01/11 07:28:39;;;;;;;27.57;17.13;;;-5.10;99.90;;;;;;5052888;28;20218;-59
2021/01/11 07:31:05;;;;;;;23.80;14.80;;;-5.00;99.90;;;;;;5053182;28;20205;-59
2021/01/11 07:33:32;;;;;;;22.77;14.10;;;-4.90;99.90;;;;;;5052774;28;20609;-59
2021/01/11 07:35:58;;;;;;;21.03;13.73;;;-4.80;99.90;;;;;;5053239;28;20228;-59
2021/01/11 07:38:25;;;;;;;22.53;14.13;;;-4.60;99.90;;;;;;5052695;28;20209;-59
2021/01/11 07:40:58;;;;;;;22.90;13.87;;;-4.60;99.90;;;;;;5053017;28;20229;-59
2021/01/11 07:43:25;;;;;;;24.33;14.43;;;-4.60;99.90;;;;;;5052802;28;20197;-59
2021/01/11 07:46:02;;;;;;;21.87;13.93;;;-4.60;99.90;;;;;;5053497;28;20260;-59
2021/01/11 07:48:28;;;;;;;22.63;14.57;;;-4.50;99.90;;;;;;5052786;28;20300;-59
2021/01/11 07:51:06;;;;;;;22.47;13.83;;;-4.40;99.90;;;;;;5052636;28;20212;-59
2021/01/11 07:53:36;;;;;;;22.63;13.93;;;-4.50;99.90;;;;;;5052499;28;20317;-59
2021/01/11 07:56:06;;;;;;;23.10;14.33;;;-4.50;99.90;;;;;;5052711;28;20206;-59
2021/01/11 07:58:32;;;;;;;24.03;14.57;;;-4.30;99.90;;;;;;5052333;28;20730;-59
2021/01/11 08:01:04;;;;;;;50.23;29.73;;;-4.20;99.90;;;;;;5052691;28;20222;-60
2021/01/11 08:03:31;;;;;;;70.27;38.90;;;-4.00;99.90;;;;;;5052559;28;20208;-59
2021/01/11 08:06:02;;;;;;;35.13;20.67;;;-3.80;99.90;;;;;;5052725;28;20206;-59
2021/01/11 08:08:32;;;;;;;27.60;18.00;;;-3.50;99.90;;;;;;5052426;28;20681;-59
2021/01/11 08:11:00;;;;;;;26.53;17.47;;;-3.40;99.90;;;;;;5052716;28;20205;-60
2021/01/11 08:13:26;;;;;;;23.53;14.50;;;-3.30;99.90;;;;;;5052332;28;20232;-60
2021/01/11 08:15:53;;;;;;;21.03;13.57;;;-3.30;99.90;;;;;;5052564;28;20296;-60
2021/01/11 08:18:22;;;;;;;23.73;14.97;;;-3.10;99.90;;;;;;5051962;28;20666;-60
2021/01/11 08:20:49;;;;;;;22.73;14.30;;;-3.00;99.90;;;;;;5051673;28;20329;-60
2021/01/11 08:23:15;;;;;;;24.53;14.37;;;-2.80;99.90;;;;;;5052735;28;20202;-60
2021/01/11 08:25:41;;;;;;;22.53;14.10;;;-2.70;99.90;;;;;;5052073;28;20358;-60
2021/01/11 08:28:09;;;;;;;23.40;14.33;;;-2.70;99.90;;;;;;5052123;28;20205;-60
2021/01/11 08:30:36;;;;;;;24.70;14.73;;;-2.60;99.90;;;;;;5052333;28;20232;-60
2021/01/11 08:33:07;;;;;;;28.87;15.67;;;-2.70;99.90;;;;;;5052048;28;20233;-60
2021/01/11 08:35:34;;;;;;;22.60;13.70;;;-2.80;99.90;;;;;;5051801;28;20210;-60
2021/01/11 08:38:02;;;;;;;24.67;14.30;;;-2.90;99.90;;;;;;5051701;28;20263;-60
2021/01/11 08:40:29;;;;;;;22.33;14.20;;;-3.00;99.90;;;;;;5052378;28;20226;-60
2021/01/11 08:43:09;;;;;;;27.70;15.63;;;-2.90;99.90;;;;;;5052124;28;20205;-60
2021/01/11 08:45:37;;;;;;;25.13;13.87;;;-2.80;99.90;;;;;;5051690;28;20271;-60
2021/01/11 08:48:06;;;;;;;24.47;14.03;;;-2.80;99.90;;;;;;5051525;28;20268;-60
2021/01/11 08:50:34;;;;;;;22.93;13.80;;;-2.90;99.90;;;;;;5051744;28;20226;-60
2021/01/11 08:53:19;;;;;;;24.40;14.07;;;-3.00;99.90;;;;;;5051790;28;20747;-60
2021/01/11 08:56:00;;;;;;;27.10;15.23;;;-3.00;99.90;;;;;;5051884;28;20617;-60
2021/01/11 08:58:27;;;;;;;26.73;14.73;;;-2.90;99.90;;;;;;5051303;28;20308;-60
2021/01/11 09:01:08;;;;;;;28.20;15.90;;;-2.80;99.90;;;;;;5051400;28;20206;-60
2021/01/11 09:03:42;;;;;;;23.63;13.13;;;-2.90;99.90;;;;;;5051247;28;20292;-60
2021/01/11 09:06:10;;;;;;;28.50;15.03;;;-2.80;99.90;;;;;;5051206;28;20223;-60
2021/01/11 09:08:36;;;;;;;29.73;16.57;;;-2.80;99.90;;;;;;5050825;28;20202;-60
2021/01/11 09:11:08;;;;;;;25.13;15.97;;;-2.80;99.90;;;;;;5051117;28;20669;-62
2021/01/11 09:13:34;;;;;;;27.00;15.00;;;-2.70;99.90;;;;;;5051053;28;20226;-61
2021/01/11 09:16:11;;;;;;;27.00;15.97;;;-2.60;99.90;;;;;;5051485;28;20201;-60
2021/01/11 09:18:37;;;;;;;27.83;15.27;;;-2.40;99.90;;;;;;5050839;28;20218;-60
2021/01/11 09:21:03;;;;;;;25.63;15.07;;;-2.50;99.90;;;;;;5052023;28;20212;-60
2021/01/11 09:23:30;;;;;;;28.07;17.40;;;-2.60;99.90;;;;;;5050692;28;20229;-60
2021/01/11 09:25:57;;;;;;;30.37;17.27;;;-2.60;99.90;;;;;;5051073;28;20209;-61
2021/01/11 09:28:23;;;;;;;25.70;13.90;;;-2.40;99.90;;;;;;5050892;28;20688;-59
2021/01/11 09:30:51;;;;;;;27.10;15.50;;;-2.30;99.90;;;;;;5051006;28;20229;-60
2021/01/11 09:33:17;;;;;;;27.87;15.67;;;-2.40;99.90;;;;;;5051069;28;20222;-60
2021/01/11 09:35:43;;;;;;;24.00;15.30;;;-2.30;99.90;;;;;;5050593;28;20225;-60
2021/01/11 09:38:09;;;;;;;29.30;16.27;;;-2.20;99.90;;;;;;5050567;28;20206;-60
2021/01/11 09:40:36;;;;;;;26.30;15.17;;;-2.10;99.90;;;;;;5050842;28;20225;-63
2021/01/11 09:43:03;;;;;;;24.57;14.97;;;-1.90;99.90;;;;;;5050975;28;20201;-60
2021/01/11 09:45:29;;;;;;;27.13;16.23;;;-2.00;99.90;;;;;;5050882;28;20205;-60
2021/01/11 09:47:55;;;;;;;32.27;16.50;;;-2.10;99.90;;;;;;5050407;28;20216;-60
2021/01/11 09:50:21;;;;;;;26.00;15.40;;;-2.10;99.90;;;;;;5050512;28;20234;-60
2021/01/11 09:52:48;;;;;;;35.83;20.30;;;-1.90;99.90;;;;;;5050593;28;20221;-60
2021/01/11 09:55:15;;;;;;;27.70;15.97;;;-1.70;99.90;;;;;;5050447;28;20214;-60
2021/01/11 09:57:43;;;;;;;30.63;16.83;;;-1.50;99.90;;;;;;5050946;28;20205;-61
2021/01/11 10:00:11;;;;;;;32.37;17.90;;;-1.30;99.90;;;;;;5051121;28;20233;-60
2021/01/11 10:02:38;;;;;;;29.50;16.80;;;-1.30;99.90;;;;;;5050757;28;20202;-60
2021/01/11 10:05:05;;;;;;;24.67;16.20;;;-1.20;99.90;;;;;;5050436;28;20205;-61
2021/01/11 10:07:31;;;;;;;25.83;15.63;;;-1.10;99.90;;;;;;5051160;28;20210;-61
2021/01/11 10:09:57;;;;;;;22.57;14.47;;;-1.10;99.90;;;;;;5050487;28;20225;-61
2021/01/11 10:12:23;;;;;;;28.17;17.50;;;-1.10;99.90;;;;;;5050574;28;20485;-61
2021/01/11 10:14:51;;;;;;;25.23;15.40;;;-1.00;99.90;;;;;;5050452;28;20210;-60
2021/01/11 10:17:17;;;;;;;24.40;14.97;;;-1.00;99.90;;;;;;5050634;28;20216;-61
2021/01/11 10:19:43;;;;;;;26.93;16.43;;;-0.70;99.90;;;;;;5049873;28;20233;-60
2021/01/11 10:22:10;;;;;;;26.67;16.13;;;-0.40;99.90;;;;;;5050495;28;20212;-60
2021/01/11 10:24:36;;;;;;;25.83;15.63;;;-0.20;99.90;;;;;;5050347;28;20233;-60
2021/01/11 10:27:02;;;;;;;26.53;15.90;;;0.00;99.90;;;;;;5050378;28;20209;-60
2021/01/11 10:29:28;;;;;;;21.83;13.63;;;0.20;99.90;;;;;;5050195;28;20225;-61
2021/01/11 10:31:55;;;;;;;24.73;14.90;;;0.30;99.90;;;;;;5050504;28;20231;-60
2021/01/11 10:34:22;;;;;;;24.77;15.37;;;0.20;99.90;;;;;;5049839;28;20263;-61
2021/01/11 10:36:50;;;;;;;24.17;15.87;;;0.10;99.90;;;;;;5050397;28;20209;-61
2021/01/11 10:39:20;;;;;;;21.60;14.10;;;0.00;99.90;;;;;;5050213;28;20233;-61
2021/01/11 10:41:49;;;;;;;23.00;14.50;;;0.10;99.90;;;;;;5050533;28;20201;-61
2021/01/11 10:44:16;;;;;;;22.73;14.93;;;0.20;99.90;;;;;;5053691;28;20201;-60
2021/01/11 10:46:42;;;;;;;22.97;13.80;;;0.40;99.90;;;;;;5054096;28;20205;-60
2021/01/11 10:49:09;;;;;;;22.23;14.33;;;0.60;99.90;;;;;;5053545;28;20229;-60
2021/01/11 10:51:35;;;;;;;23.13;13.13;;;0.70;99.90;;;;;;5054180;28;20216;-60
2021/01/11 10:54:03;;;;;;;20.00;12.43;;;0.60;99.90;;;;;;5053443;28;20233;-60
2021/01/11 10:56:29;;;;;;;19.67;13.23;;;0.70;99.90;;;;;;5054030;28;20213;-61
2021/01/11 10:58:55;;;;;;;18.27;12.20;;;0.70;99.90;;;;;;5053190;28;20768;-61
2021/01/11 11:01:21;;;;;;;20.13;13.37;;;0.80;99.90;;;;;;5053765;28;20210;-59
2021/01/11 11:03:48;;;;;;;20.63;13.73;;;0.80;99.90;;;;;;5053635;28;20602;-59
2021/01/11 11:06:15;;;;;;;20.00;12.67;;;1.10;99.90;;;;;;5053699;28;20209;-60
2021/01/11 11:08:42;;;;;;;18.97;12.57;;;1.20;99.90;;;;;;5053717;28;20228;-61
2021/01/11 11:11:08;;;;;;;20.33;13.33;;;1.40;99.90;;;;;;5053702;28;20217;-60
2021/01/11 11:13:34;;;;;;;20.37;14.20;;;1.40;99.90;;;;;;5052846;28;20222;-60
2021/01/11 11:16:05;;;;;;;21.77;13.93;;;1.50;99.90;;;;;;5054297;28;20213;-61
2021/01/11 11:18:33;;;;;;;20.53;12.47;;;1.50;99.90;;;;;;5053215;28;20210;-60
2021/01/11 11:21:00;;;;;;;17.70;11.73;;;1.60;99.90;;;;;;5054161;28;20208;-61
2021/01/11 11:23:27;;;;;;;18.43;12.70;;;1.70;99.90;;;;;;5053027;28;20202;-60
2021/01/11 11:25:53;;;;;;;19.53;13.20;;;1.90;99.90;;;;;;5053335;28;20205;-63
2021/01/11 11:28:20;;;;;;;23.10;14.50;;;2.00;99.90;;;;;;5052813;28;20206;-61
2021/01/11 11:30:46;;;;;;;21.43;13.60;;;2.00;99.90;;;;;;5052867;28;20316;-61
2021/01/11 11:33:12;;;;;;;22.27;14.30;;;1.90;99.90;;;;;;5053121;28;20425;-63
2021/01/11 11:35:41;;;;;;;20.97;13.77;;;1.90;99.90;;;;;;5052916;28;20678;-61
2021/01/11 11:38:07;;;;;;;22.00;13.63;;;1.90;99.90;;;;;;5053227;28;20600;-61
2021/01/11 11:40:35;;;;;;;21.53;14.60;;;2.00;99.90;;;;;;5052868;28;20942;-61
2021/01/11 11:43:02;;;;;;;22.73;14.17;;;2.20;99.90;;;;;;5052971;28;20209;-61
2021/01/11 11:45:28;;;;;;;21.47;14.23;;;2.40;99.90;;;;;;5053221;28;20216;-61
2021/01/11 11:47:54;;;;;;;21.10;14.60;;;2.60;99.80;;;;;;5052823;28;20216;-62
2021/01/11 11:50:21;;;;;;;22.30;14.40;;;2.80;99.90;;;;;;5052801;28;20290;-62
2021/01/11 11:52:47;;;;;;;21.23;14.13;;;3.10;99.90;;;;;;5052698;28;20332;-62
2021/01/11 11:55:14;;;;;;;20.60;13.73;;;3.30;99.30;;;;;;5051787;28;20324;-61
2021/01/11 11:57:42;;;;;;;20.67;13.37;;;3.50;99.30;;;;;;5052842;28;20844;-61
2021/01/11 12:00:09;;;;;;;21.50;14.13;;;3.60;98.80;;;;;;5053056;28;20248;-61
2021/01/11 12:02:35;;;;;;;21.40;13.20;;;3.70;98.20;;;;;;5053010;28;20666;-62
2021/01/11 12:05:02;;;;;;;21.47;13.40;;;3.40;98.10;;;;;;5052683;28;20205;-62
2021/01/11 12:07:28;;;;;;;21.57;13.90;;;3.00;98.50;;;;;;5049240;28;20221;-61
2021/01/11 12:09:54;;;;;;;20.10;13.23;;;2.70;98.90;;;;;;5052042;28;20236;-62
2021/01/11 12:12:21;;;;;;;24.10;14.57;;;2.40;99.30;;;;;;5052332;28;20213;-62
2021/01/11 12:14:48;;;;;;;16.97;12.70;;;2.50;99.60;;;;;;5051640;28;20679;-62
2021/01/11 12:17:15;;;;;;;17.33;12.17;;;2.70;99.40;;;;;;5052072;28;20201;-61
2021/01/11 12:19:41;;;;;;;17.50;11.67;;;2.80;98.80;;;;;;5051717;28;20642;-62
2021/01/11 12:22:10;;;;;;;18.80;13.07;;;3.00;98.40;;;;;;5052347;28;20581;-62
2021/01/11 12:24:37;;;;;;;20.67;13.97;;;3.10;98.20;;;;;;5051693;28;20256;-61
2021/01/11 12:27:04;;;;;;;18.70;13.40;;;3.20;98.10;;;;;;5052000;28;20209;-60
2021/01/11 12:29:31;;;;;;;19.47;13.10;;;3.40;98.20;;;;;;5051889;28;20345;-61
2021/01/11 12:31:58;;;;;;;17.07;11.93;;;3.50;97.50;;;;;;5051865;28;20678;-61
2021/01/11 12:34:24;;;;;;;20.03;12.93;;;3.60;97.10;;;;;;5051096;28;20222;-61